createdAt,value
2018-06-05T00:00:45.361Z,23.1
2018-06-05T00:01:36.061Z,23.1
2018-06-05T00:02:25.504Z,23.1
2018-06-05T00:03:16.248Z,23.1
2018-06-05T00:04:06.488Z,23.2
2018-06-05T00:04:55.461Z,23.1
2018-06-05T00:05:46.316Z,23.1
2018-06-05T00:06:36.654Z,23.1
2018-06-05T00:07:26.415Z,23.2
2018-06-05T00:08:16.257Z,23.1
2018-06-05T00:09:06.355Z,23.2
2018-06-05T00:09:56.688Z,23.2
2018-06-05T00:10:46.502Z,23.1
2018-06-05T00:11:36.809Z,23.2
2018-06-05T00:12:27.160Z,23.1
2018-06-05T00:13:16.910Z,23.1
2018-06-05T00:14:06.945Z,23.1
2018-06-05T00:14:57.308Z,23.1
2018-06-05T00:15:47.078Z,23.1
2018-06-05T00:16:37.142Z,23.1
2018-06-05T00:17:27.210Z,23.1
2018-06-05T00:18:17.814Z,23.1
2018-06-05T00:19:07.643Z,23.1
2018-06-05T00:19:57.168Z,23.1
2018-06-05T00:20:48.004Z,23.1
2018-06-05T00:21:37.826Z,23.1
2018-06-05T00:22:27.841Z,23.1
2018-06-05T00:23:16.630Z,23.1
2018-06-05T00:24:07.839Z,23.1
2018-06-05T00:24:57.908Z,23.1
2018-06-05T00:25:47.684Z,23.1
2018-06-05T00:26:36.990Z,23.1
2018-06-05T00:27:27.012Z,23.2
2018-06-05T00:28:17.612Z,23.1
2018-06-05T00:29:07.462Z,23.1
2018-06-05T00:29:57.187Z,23.1
2018-06-05T00:30:47.754Z,23.1
2018-06-05T00:31:37.833Z,23.1
2018-06-05T00:32:27.581Z,23.1
2018-06-05T00:33:18.744Z,23.1
2018-06-05T00:34:07.934Z,23.1
2018-06-05T00:34:57.960Z,23.1
2018-06-05T00:35:48.593Z,23.1
2018-06-05T00:36:39.001Z,23.1
2018-06-05T00:37:29.361Z,23.2
2018-06-05T00:38:18.232Z,23.1
2018-06-05T00:39:09.164Z,23.1
2018-06-05T00:39:58.963Z,23.1
2018-06-05T00:40:48.716Z,23.1
2018-06-05T00:41:39.390Z,23.1
2018-06-05T00:42:29.710Z,23.1
2018-06-05T00:43:18.913Z,23.1
2018-06-05T00:44:09.278Z,23.1
2018-06-05T00:44:58.244Z,23.1
2018-06-05T00:45:49.427Z,23.1
2018-06-05T00:46:38.906Z,23.1
2018-06-05T00:47:29.581Z,23.1
2018-06-05T00:48:19.288Z,23.1
2018-06-05T00:49:10.201Z,23.1
2018-06-05T00:49:59.759Z,23.1
2018-06-05T00:50:49.596Z,23.1
2018-06-05T00:51:39.538Z,23.1
2018-06-05T00:52:29.865Z,23.1
2018-06-05T00:53:19.966Z,23.1
2018-06-05T00:54:10.319Z,23.1
2018-06-05T00:54:59.877Z,23.1
2018-06-05T00:55:50.684Z,23.1
2018-06-05T00:56:40.494Z,23.1
2018-06-05T00:57:29.725Z,23.1
2018-06-05T00:58:20.314Z,23.1
2018-06-05T00:59:10.956Z,23.1
2018-06-05T01:00:00.480Z,23.1
2018-06-05T01:00:50.341Z,23.1
2018-06-05T01:01:40.949Z,23.1
2018-06-05T01:02:30.394Z,23.1
2018-06-05T01:03:21.016Z,23.1
2018-06-05T01:04:10.271Z,23.1
2018-06-05T01:05:01.466Z,23.1
2018-06-05T01:05:50.937Z,23.1
2018-06-05T01:06:40.141Z,23.1
2018-06-05T01:07:30.479Z,23.1
2018-06-05T01:08:21.393Z,23.1
2018-06-05T01:09:10.614Z,23.1
2018-06-05T01:10:01.536Z,23.1
2018-06-05T01:10:51.579Z,23.1
2018-06-05T01:11:41.120Z,23.1
2018-06-05T01:12:31.181Z,23.1
2018-06-05T01:13:20.636Z,23.1
2018-06-05T01:14:11.574Z,23.1
2018-06-05T01:15:01.945Z,23.1
2018-06-05T01:15:51.499Z,23.1
2018-06-05T01:16:41.743Z,23.1
2018-06-05T01:17:31.533Z,23.1
2018-06-05T01:18:21.880Z,23.1
2018-06-05T01:19:12.497Z,23.1
2018-06-05T01:20:02.357Z,23.1
2018-06-05T01:20:52.080Z,23.1
2018-06-05T01:21:42.104Z,23.1
2018-06-05T01:22:31.729Z,23.1
2018-06-05T01:23:21.737Z,23.1
2018-06-05T01:24:12.350Z,23.1
2018-06-05T01:25:02.160Z,23.1
2018-06-05T01:25:52.490Z,23.1
2018-06-05T01:26:42.510Z,23.1
2018-06-05T01:27:32.555Z,23.1
2018-06-05T01:28:22.680Z,23.1
2018-06-05T01:29:12.767Z,23.1
2018-06-05T01:30:02.564Z,23.1
2018-06-05T01:30:52.616Z,23.1
2018-06-05T01:31:43.605Z,23.1
2018-06-05T01:32:32.960Z,23.1
2018-06-05T01:33:22.470Z,23.1
2018-06-05T01:34:13.429Z,23.1
2018-06-05T01:35:03.216Z,23.1
2018-06-05T01:35:51.879Z,23.1
2018-06-05T01:36:42.270Z,23.1
2018-06-05T01:37:32.098Z,23.1
2018-06-05T01:38:22.641Z,23.1
2018-06-05T01:39:12.615Z,23.1
2018-06-05T01:40:02.637Z,23.1
2018-06-05T01:40:52.864Z,23.1
2018-06-05T01:41:42.693Z,23.1
2018-06-05T01:42:31.593Z,23.1
2018-06-05T01:43:22.490Z,23.1
2018-06-05T01:44:12.414Z,23.1
2018-06-05T01:45:02.165Z,23.1
2018-06-05T01:45:52.441Z,23.1
2018-06-05T01:46:43.191Z,23.1
2018-06-05T01:47:32.487Z,23.1
2018-06-05T01:48:23.692Z,23.1
2018-06-05T01:49:13.202Z,23.1
2018-06-05T01:50:04.865Z,23.1
2018-06-05T01:50:54.681Z,23.1
2018-06-05T01:51:44.196Z,23.1
2018-06-05T01:52:35.050Z,23.1
2018-06-05T01:53:24.800Z,23.1
2018-06-05T01:54:14.912Z,23.1
2018-06-05T01:55:05.099Z,23.1
2018-06-05T01:55:54.806Z,23.1
2018-06-05T01:56:44.848Z,23.1
2018-06-05T01:57:35.171Z,23.1
2018-06-05T01:58:24.652Z,23.1
2018-06-05T01:59:13.693Z,23.1
2018-06-05T02:00:04.636Z,23.1
2018-06-05T02:00:54.682Z,23.1
2018-06-05T02:01:44.743Z,23.1
2018-06-05T02:02:34.817Z,23.1
2018-06-05T02:03:25.120Z,23.1
2018-06-05T02:04:14.629Z,23.1
2018-06-05T02:05:04.703Z,23.1
2018-06-05T02:05:54.235Z,23.1
2018-06-05T02:06:44.821Z,23.1
2018-06-05T02:07:35.186Z,23.1
2018-06-05T02:08:25.463Z,23.1
2018-06-05T02:09:15.537Z,23.1
2018-06-05T02:10:06.148Z,23.1
2018-06-05T02:10:55.408Z,23.1
2018-06-05T02:11:43.673Z,23.1
2018-06-05T02:12:35.378Z,23.1
2018-06-05T02:13:25.543Z,23.1
2018-06-05T02:14:15.430Z,23.1
2018-06-05T02:15:06.153Z,23.1
2018-06-05T02:15:55.298Z,23.1
2018-06-05T02:16:45.175Z,23.1
2018-06-05T02:17:36.538Z,23.1
2018-06-05T02:18:26.267Z,23.1
2018-06-05T02:19:16.572Z,23.1
2018-06-05T02:20:05.825Z,23.1
2018-06-05T02:20:56.719Z,23.1
2018-06-05T02:21:47.057Z,23.1
2018-06-05T02:22:36.522Z,23.1
2018-06-05T02:23:26.870Z,23.1
2018-06-05T02:24:16.689Z,23.1
2018-06-05T02:25:07.061Z,23.1
2018-06-05T02:25:56.511Z,23.1
2018-06-05T02:26:46.913Z,23.1
2018-06-05T02:27:37.457Z,23.1
2018-06-05T02:28:26.972Z,23.1
2018-06-05T02:29:17.886Z,23.1
2018-06-05T02:30:07.421Z,23.1
2018-06-05T02:30:57.202Z,23.1
2018-06-05T02:31:47.071Z,23.1
2018-06-05T02:32:37.843Z,23.1
2018-06-05T02:33:26.834Z,23.1
2018-06-05T02:34:18.713Z,23.1
2018-06-05T02:35:07.488Z,23.1
2018-06-05T02:35:57.842Z,23.1
2018-06-05T02:36:47.955Z,23.1
2018-06-05T02:37:38.216Z,23.1
2018-06-05T02:38:28.289Z,23.1
2018-06-05T02:39:18.043Z,23.1
2018-06-05T02:40:08.166Z,23.1
2018-06-05T02:40:58.535Z,23.1
2018-06-05T02:41:48.880Z,23.1
2018-06-05T02:42:38.619Z,23.1
2018-06-05T02:43:28.685Z,23.1
2018-06-05T02:44:18.467Z,23.1
2018-06-05T02:45:08.834Z,23.1
2018-06-05T02:45:59.136Z,23.1
2018-06-05T02:46:47.844Z,23.1
2018-06-05T02:47:38.989Z,23.1
2018-06-05T02:48:29.110Z,23.1
2018-06-05T02:49:18.862Z,23.1
2018-06-05T02:50:08.939Z,23.1
2018-06-05T02:50:58.691Z,23.1
2018-06-05T02:51:49.659Z,23.1
2018-06-05T02:52:39.680Z,23.1
2018-06-05T02:53:29.729Z,23.1
2018-06-05T02:54:19.787Z,23.1
2018-06-05T02:55:09.607Z,23.1
2018-06-05T02:55:59.947Z,23.1
2018-06-05T02:56:49.152Z,23.1
2018-06-05T02:57:39.762Z,23.1
2018-06-05T02:58:27.871Z,23.1
2018-06-05T02:59:19.909Z,23.1
2018-06-05T03:00:09.745Z,23.1
2018-06-05T03:00:59.797Z,23.1
2018-06-05T03:01:50.413Z,23.1
2018-06-05T03:02:40.234Z,23.1
2018-06-05T03:03:29.642Z,23.1
2018-06-05T03:04:20.026Z,23.1
2018-06-05T03:05:09.202Z,23.1
2018-06-05T03:05:59.825Z,23.1
2018-06-05T03:06:49.930Z,23.1
2018-06-05T03:07:40.008Z,23.1
2018-06-05T03:08:30.013Z,23.1
2018-06-05T03:09:19.926Z,23.1
2018-06-05T03:10:10.183Z,23.1
2018-06-05T03:11:00.512Z,23.1
2018-06-05T03:11:50.058Z,23.1
2018-06-05T03:12:40.065Z,23.1
2018-06-05T03:13:31.011Z,23.1
2018-06-05T03:14:20.836Z,23.1
2018-06-05T03:15:10.001Z,23.1
2018-06-05T03:16:00.906Z,23.1
2018-06-05T03:16:50.984Z,23.1
2018-06-05T03:17:40.742Z,23.1
2018-06-05T03:18:30.809Z,23.1
2018-06-05T03:19:21.419Z,23.1
2018-06-05T03:20:11.779Z,23.1
2018-06-05T03:21:00.439Z,23.1
2018-06-05T03:21:51.743Z,23.1
2018-06-05T03:22:41.934Z,23.1
2018-06-05T03:23:30.896Z,23.1
2018-06-05T03:24:22.122Z,23.1
2018-06-05T03:25:26.343Z,23.1
2018-06-05T03:26:01.080Z,23.1
2018-06-05T03:26:52.024Z,23.1
2018-06-05T03:27:41.820Z,23.1
2018-06-05T03:28:31.859Z,23.1
2018-06-05T03:29:21.681Z,23.1
2018-06-05T03:30:12.053Z,23.1
2018-06-05T03:31:02.163Z,23.1
2018-06-05T03:31:52.494Z,23.1
2018-06-05T03:32:42.189Z,23.1
2018-06-05T03:33:32.741Z,23.1
2018-06-05T03:34:22.065Z,23.1
2018-06-05T03:35:12.917Z,23.1
2018-06-05T03:36:02.953Z,23.1
2018-06-05T03:36:52.975Z,23.1
2018-06-05T03:37:43.094Z,23.1
2018-06-05T03:38:32.654Z,23.1
2018-06-05T03:39:22.635Z,23.1
2018-06-05T03:40:13.000Z,23.1
2018-06-05T03:41:03.194Z,23.1
2018-06-05T03:41:53.131Z,23.1
2018-06-05T03:42:42.883Z,23.1
2018-06-05T03:43:33.255Z,23.1
2018-06-05T03:44:23.571Z,23.1
2018-06-05T03:45:13.399Z,23.1
2018-06-05T03:46:03.729Z,23.1
2018-06-05T03:46:53.516Z,23.1
2018-06-05T03:47:42.753Z,23.1
2018-06-05T03:48:33.668Z,23.1
2018-06-05T03:49:23.682Z,23.1
2018-06-05T03:50:14.039Z,23.1
2018-06-05T03:51:03.572Z,23.1
2018-06-05T03:51:53.329Z,23.1
2018-06-05T03:52:43.720Z,23.1
2018-06-05T03:53:33.730Z,23.1
2018-06-05T03:54:23.252Z,23.1
2018-06-05T03:55:13.577Z,23.1
2018-06-05T03:56:04.231Z,23.1
2018-06-05T03:56:54.555Z,23.1
2018-06-05T03:57:44.338Z,23.1
2018-06-05T03:58:34.672Z,23.1
2018-06-05T03:59:24.778Z,23.1
2018-06-05T04:00:14.959Z,23.1
2018-06-05T04:01:04.389Z,23.1
2018-06-05T04:01:54.380Z,23.1
2018-06-05T04:02:44.980Z,23.1
2018-06-05T04:03:34.775Z,23.1
2018-06-05T04:04:24.579Z,23.1
2018-06-05T04:05:14.964Z,23.1
2018-06-05T04:06:04.735Z,23.1
2018-06-05T04:06:55.349Z,23.1
2018-06-05T04:07:45.109Z,23.1
2018-06-05T04:08:35.188Z,23.1
2018-06-05T04:09:24.938Z,23.1
2018-06-05T04:10:15.296Z,23.1
2018-06-05T04:11:04.877Z,23
2018-06-05T04:11:54.633Z,23
2018-06-05T04:12:45.523Z,22.9
2018-06-05T04:13:35.837Z,22.9
2018-06-05T04:14:25.316Z,22.8
2018-06-05T04:15:15.448Z,22.8
2018-06-05T04:16:05.448Z,22.7
2018-06-05T04:16:55.790Z,22.6
2018-06-05T04:17:45.390Z,22.6
2018-06-05T04:18:36.246Z,22.5
2018-06-05T04:19:25.449Z,22.5
2018-06-05T04:20:15.227Z,22.4
2018-06-05T04:21:05.305Z,22.4
2018-06-05T04:21:55.650Z,22.4
2018-06-05T04:22:46.543Z,22.4
2018-06-05T04:23:36.342Z,22.3
2018-06-05T04:24:26.395Z,22.3
2018-06-05T04:25:16.229Z,22.3
2018-06-05T04:26:06.507Z,22.3
2018-06-05T04:26:56.920Z,22.3
2018-06-05T04:27:46.710Z,22.3
2018-06-05T04:28:36.393Z,22.2
2018-06-05T04:29:27.027Z,22.3
2018-06-05T04:30:16.277Z,22.3
2018-06-05T04:31:06.681Z,22.2
2018-06-05T04:31:56.952Z,22.3
2018-06-05T04:32:47.308Z,22.3
2018-06-05T04:33:36.804Z,22.2
2018-06-05T04:34:27.377Z,22.2
2018-06-05T04:35:17.504Z,22.2
2018-06-05T04:36:07.347Z,22.2
2018-06-05T04:36:56.811Z,22.2
2018-06-05T04:37:46.594Z,22.2
2018-06-05T04:38:37.775Z,22.2
2018-06-05T04:39:27.557Z,22.1
2018-06-05T04:40:17.296Z,22.1
2018-06-05T04:41:06.913Z,22.1
2018-06-05T04:41:57.441Z,22.1
2018-06-05T04:42:47.844Z,22.1
2018-06-05T04:43:37.560Z,22.1
2018-06-05T04:44:27.365Z,22.1
2018-06-05T04:45:17.158Z,22.1
2018-06-05T04:46:06.732Z,22.1
2018-06-05T04:46:57.809Z,22.1
2018-06-05T04:47:48.561Z,22
2018-06-05T04:48:38.230Z,22
2018-06-05T04:49:28.605Z,22
2018-06-05T04:50:18.342Z,22.1
2018-06-05T04:51:08.720Z,22.1
2018-06-05T04:51:57.889Z,22.1
2018-06-05T04:52:48.026Z,22.1
2018-06-05T04:53:38.079Z,22.1
2018-06-05T04:54:28.956Z,22.2
2018-06-05T04:55:19.064Z,22.3
2018-06-05T04:56:08.808Z,22.3
2018-06-05T04:56:57.827Z,22.3
2018-06-05T04:57:48.389Z,22.3
2018-06-05T04:58:38.748Z,22.4
2018-06-05T04:59:28.088Z,22.4
2018-06-05T05:00:19.123Z,22.4
2018-06-05T05:01:09.175Z,22.4
2018-06-05T05:01:58.992Z,22.4
2018-06-05T05:02:49.048Z,22.5
2018-06-05T05:03:39.381Z,22.5
2018-06-05T05:04:28.918Z,22.5
2018-06-05T05:05:19.258Z,22.6
2018-06-05T05:06:09.391Z,22.6
2018-06-05T05:06:59.086Z,22.6
2018-06-05T05:07:49.166Z,22.6
2018-06-05T05:08:39.773Z,22.6
2018-06-05T05:09:29.268Z,22.6
2018-06-05T05:10:19.351Z,22.6
2018-06-05T05:11:09.482Z,22.6
2018-06-05T05:11:59.472Z,22.7
2018-06-05T05:12:49.591Z,22.7
2018-06-05T05:13:39.595Z,22.7
2018-06-05T05:14:29.945Z,22.7
2018-06-05T05:15:20.320Z,22.7
2018-06-05T05:16:09.809Z,22.7
2018-06-05T05:16:59.598Z,22.8
2018-06-05T05:17:49.917Z,22.8
2018-06-05T05:18:40.270Z,22.8
2018-06-05T05:19:30.073Z,22.8
2018-06-05T05:20:20.105Z,22.8
2018-06-05T05:21:10.819Z,22.8
2018-06-05T05:22:00.280Z,22.8
2018-06-05T05:22:51.139Z,22.8
2018-06-05T05:23:41.225Z,22.8
2018-06-05T05:24:30.709Z,22.8
2018-06-05T05:25:20.770Z,22.8
2018-06-05T05:26:10.867Z,22.8
2018-06-05T05:27:00.668Z,22.8
2018-06-05T05:27:51.548Z,22.8
2018-06-05T05:28:41.321Z,22.8
2018-06-05T05:29:31.682Z,22.8
2018-06-05T05:30:21.747Z,22.8
2018-06-05T05:31:11.543Z,22.8
2018-06-05T05:32:00.808Z,22.8
2018-06-05T05:32:51.326Z,22.8
2018-06-05T05:33:40.816Z,22.8
2018-06-05T05:34:31.808Z,22.8
2018-06-05T05:35:21.899Z,22.8
2018-06-05T05:36:11.893Z,22.9
2018-06-05T05:37:01.395Z,22.8
2018-06-05T05:37:51.745Z,22.9
2018-06-05T05:38:42.087Z,22.9
2018-06-05T05:39:31.925Z,22.9
2018-06-05T05:40:22.431Z,22.9
2018-06-05T05:41:11.681Z,22.9
2018-06-05T05:42:02.362Z,22.9
2018-06-05T05:42:51.694Z,22.9
2018-06-05T05:43:42.186Z,22.9
2018-06-05T05:44:32.543Z,22.9
2018-06-05T05:45:22.034Z,22.9
2018-06-05T05:46:12.100Z,22.9
2018-06-05T05:47:02.217Z,22.9
2018-06-05T05:47:52.621Z,22.9
2018-06-05T05:48:42.928Z,22.9
2018-06-05T05:49:32.520Z,22.9
2018-06-05T05:50:22.761Z,22.9
2018-06-05T05:51:12.477Z,22.9
2018-06-05T05:52:02.039Z,22.9
2018-06-05T05:52:52.981Z,22.9
2018-06-05T05:53:42.758Z,22.9
2018-06-05T05:54:33.365Z,22.9
2018-06-05T05:55:22.805Z,22.9
2018-06-05T05:56:13.435Z,22.9
2018-06-05T05:57:03.261Z,22.9
2018-06-05T05:57:53.308Z,22.9
2018-06-05T05:58:43.680Z,22.9
2018-06-05T05:59:33.425Z,22.9
2018-06-05T06:00:23.220Z,22.9
2018-06-05T06:01:13.897Z,22.9
2018-06-05T06:02:04.284Z,22.9
2018-06-05T06:02:54.247Z,22.9
2018-06-05T06:03:44.205Z,22.9
2018-06-05T06:04:34.387Z,22.9
2018-06-05T06:05:23.564Z,22.9
2018-06-05T06:06:13.648Z,22.9
2018-06-05T06:07:04.623Z,22.9
2018-06-05T06:07:54.062Z,22.9
2018-06-05T06:08:44.154Z,22.9
2018-06-05T06:09:34.446Z,22.9
2018-06-05T06:10:24.559Z,22.9
2018-06-05T06:11:14.604Z,22.9
2018-06-05T06:12:04.652Z,22.9
2018-06-05T06:12:54.476Z,22.9
2018-06-05T06:13:44.827Z,23
2018-06-05T06:14:34.861Z,23
2018-06-05T06:15:24.365Z,23
2018-06-05T06:16:15.015Z,23
2018-06-05T06:17:05.249Z,23
2018-06-05T06:17:54.525Z,23
2018-06-05T06:18:44.669Z,22.9
2018-06-05T06:19:35.521Z,23
2018-06-05T06:20:24.766Z,23
2018-06-05T06:21:15.091Z,23
2018-06-05T06:22:04.964Z,23
2018-06-05T06:22:54.948Z,23
2018-06-05T06:23:45.824Z,23
2018-06-05T06:24:35.084Z,23
2018-06-05T06:25:25.685Z,23
2018-06-05T06:26:14.634Z,23
2018-06-05T06:27:06.885Z,23
2018-06-05T06:27:55.652Z,23
2018-06-05T06:28:45.966Z,23
2018-06-05T06:29:35.751Z,23
2018-06-05T06:30:26.379Z,23
2018-06-05T06:31:15.281Z,23
2018-06-05T06:32:05.644Z,23
2018-06-05T06:32:55.140Z,23
2018-06-05T06:33:46.366Z,23
2018-06-05T06:34:36.649Z,23.1
2018-06-05T06:35:25.581Z,23
2018-06-05T06:36:16.210Z,23
2018-06-05T06:37:06.008Z,23
2018-06-05T06:37:56.980Z,23
2018-06-05T06:38:45.874Z,23
2018-06-05T06:39:36.520Z,23
2018-06-05T06:40:26.908Z,23
2018-06-05T06:41:16.633Z,23
2018-06-05T06:42:06.152Z,23
2018-06-05T06:42:56.566Z,23
2018-06-05T06:43:46.015Z,23
2018-06-05T06:44:37.166Z,23
2018-06-05T06:45:27.270Z,23
2018-06-05T06:46:17.322Z,23
2018-06-05T06:47:07.109Z,23.1
2018-06-05T06:47:57.176Z,23.1
2018-06-05T06:48:47.960Z,23
2018-06-05T06:49:37.595Z,23.1
2018-06-05T06:50:26.773Z,23.1
2018-06-05T06:51:17.237Z,23
2018-06-05T06:52:07.498Z,23
2018-06-05T06:52:57.556Z,23
2018-06-05T06:53:47.954Z,23.1
2018-06-05T06:54:38.645Z,23.1
2018-06-05T06:55:27.468Z,23.1
2018-06-05T06:56:17.750Z,23.1
2018-06-05T06:57:07.554Z,23
2018-06-05T06:57:58.454Z,23
2018-06-05T06:58:48.527Z,23
2018-06-05T06:59:37.435Z,23.1
2018-06-05T07:00:28.058Z,23.1
2018-06-05T07:01:17.309Z,23.1
2018-06-05T07:02:08.225Z,23.1
2018-06-05T07:02:58.814Z,23.1
2018-06-05T07:03:46.705Z,23.1
2018-06-05T07:04:37.898Z,23.1
2018-06-05T07:05:28.239Z,23.1
2018-06-05T07:06:18.010Z,23.1
2018-06-05T07:07:08.685Z,23.1
2018-06-05T07:07:57.620Z,23.1
2018-06-05T07:08:48.787Z,23.1
2018-06-05T07:09:37.986Z,23.1
2018-06-05T07:10:28.884Z,23.1
2018-06-05T07:11:19.197Z,23.1
2018-06-05T07:12:09.504Z,23.1
2018-06-05T07:12:58.462Z,23.1
2018-06-05T07:13:49.359Z,23.1
2018-06-05T07:14:39.229Z,23.1
2018-06-05T07:15:29.588Z,23.1
2018-06-05T07:16:18.725Z,23.1
2018-06-05T07:17:09.871Z,23.1
2018-06-05T07:17:59.659Z,23.1
2018-06-05T07:18:50.001Z,23.1
2018-06-05T07:19:39.826Z,23.1
2018-06-05T07:20:30.163Z,23.1
2018-06-05T07:21:19.661Z,23.1
2018-06-05T07:22:09.718Z,23.1
2018-06-05T07:23:00.344Z,23.1
2018-06-05T07:23:50.168Z,23.1
2018-06-05T07:24:39.967Z,23.1
2018-06-05T07:25:30.595Z,23.1
2018-06-05T07:26:20.056Z,23.1
2018-06-05T07:27:10.462Z,23.1
2018-06-05T07:27:59.984Z,23.1
2018-06-05T07:28:50.532Z,23.1
2018-06-05T07:29:40.314Z,23.1
2018-06-05T07:30:31.391Z,23.1
2018-06-05T07:31:19.875Z,23.1
2018-06-05T07:32:10.545Z,23.1
2018-06-05T07:33:00.897Z,23.1
2018-06-05T07:33:50.692Z,23.1
2018-06-05T07:34:40.526Z,23.1
2018-06-05T07:35:30.584Z,23.1
2018-06-05T07:36:21.402Z,23.1
2018-06-05T07:37:10.710Z,23.1
2018-06-05T07:38:01.249Z,23.1
2018-06-05T07:38:51.010Z,23.1
2018-06-05T07:39:41.110Z,23.1
2018-06-05T07:40:30.882Z,23.1
2018-06-05T07:41:21.225Z,23.1
2018-06-05T07:42:11.887Z,23.1
2018-06-05T07:43:01.328Z,23.1
2018-06-05T07:43:50.841Z,23.1
2018-06-05T07:44:42.034Z,23.1
2018-06-05T07:45:31.818Z,23.1
2018-06-05T07:46:21.938Z,23.1
2018-06-05T07:47:11.757Z,23.1
2018-06-05T07:48:02.053Z,23.1
2018-06-05T07:48:52.054Z,23.1
2018-06-05T07:49:41.850Z,23.1
2018-06-05T07:50:32.513Z,23.1
2018-06-05T07:51:21.200Z,23.1
2018-06-05T07:52:12.137Z,23.1
2018-06-05T07:53:01.887Z,23.1
2018-06-05T07:53:51.938Z,23.1
2018-06-05T07:54:41.741Z,23.1
2018-06-05T07:55:32.783Z,23.1
2018-06-05T07:56:22.968Z,23.1
2018-06-05T07:57:12.724Z,23.1
2018-06-05T07:58:02.509Z,23.1
2018-06-05T07:58:53.147Z,23.1
2018-06-05T07:59:42.661Z,23.1
2018-06-05T08:00:32.744Z,23.1
2018-06-05T08:01:22.583Z,23.1
2018-06-05T08:02:13.401Z,23.1
2018-06-05T08:03:03.200Z,23.1
2018-06-05T08:03:52.998Z,23.1
2018-06-05T08:04:43.622Z,23.1
2018-06-05T08:05:33.102Z,23.1
2018-06-05T08:06:22.909Z,23.1
2018-06-05T08:07:13.900Z,23.1
2018-06-05T08:08:03.309Z,23.1
2018-06-05T08:08:53.678Z,23.1
2018-06-05T08:09:43.440Z,23.1
2018-06-05T08:10:33.485Z,23.1
2018-06-05T08:11:23.568Z,23.1
2018-06-05T08:12:14.226Z,23.1
2018-06-05T08:13:03.504Z,23.1
2018-06-05T08:13:53.329Z,23.1
2018-06-05T08:14:42.769Z,23.1
2018-06-05T08:15:33.972Z,23.1
2018-06-05T08:16:22.992Z,23.1
2018-06-05T08:17:13.160Z,23.1
2018-06-05T08:18:04.655Z,23.1
2018-06-05T08:18:54.404Z,23.1
2018-06-05T08:19:44.222Z,23.1
2018-06-05T08:20:34.826Z,23.1
2018-06-05T08:21:24.384Z,23.1
2018-06-05T08:22:14.691Z,23.1
2018-06-05T08:23:04.190Z,23.1
2018-06-05T08:23:53.863Z,23.1
2018-06-05T08:24:44.735Z,23.1
2018-06-05T08:25:34.128Z,23.1
2018-06-05T08:26:24.716Z,23.2
2018-06-05T08:27:15.310Z,23.1
2018-06-05T08:28:04.701Z,23.1
2018-06-05T08:28:55.524Z,23.1
2018-06-05T08:29:45.281Z,23.1
2018-06-05T08:30:35.547Z,23.1
2018-06-05T08:31:24.909Z,23.1
2018-06-05T08:32:15.491Z,23.1
2018-06-05T08:33:05.547Z,23.1
2018-06-05T08:33:55.264Z,23.1
2018-06-05T08:34:45.118Z,23.2
2018-06-05T08:35:35.990Z,23.1
2018-06-05T08:36:24.947Z,23.1
2018-06-05T08:37:15.842Z,23.1
2018-06-05T08:38:06.403Z,23.1
2018-06-05T08:38:55.975Z,23.2
2018-06-05T08:39:45.787Z,23.1
2018-06-05T08:40:35.547Z,23.1
2018-06-05T08:41:25.914Z,23.2
2018-06-05T08:42:16.313Z,23.1
2018-06-05T08:43:05.196Z,23.1
2018-06-05T08:43:56.345Z,23.2
2018-06-05T08:44:46.426Z,23.2
2018-06-05T08:45:36.803Z,23.1
2018-06-05T08:46:25.998Z,23.2
2018-06-05T08:47:15.555Z,23.1
2018-06-05T08:48:06.825Z,23.2
2018-06-05T08:48:57.119Z,23.1
2018-06-05T08:49:46.315Z,23.2
2018-06-05T08:50:36.368Z,23.1
2018-06-05T08:51:25.626Z,23.2
2018-06-05T08:52:15.948Z,23.1
2018-06-05T08:53:06.481Z,23.2
2018-06-05T08:53:56.107Z,23.2
2018-06-05T08:54:45.901Z,23.1
2018-06-05T08:55:36.819Z,23.2
2018-06-05T08:56:26.584Z,23.1
2018-06-05T08:57:17.169Z,23.2
2018-06-05T08:58:06.429Z,23.1
2018-06-05T08:58:57.052Z,23.1
2018-06-05T08:59:47.394Z,23.2
2018-06-05T09:00:37.650Z,23.2
2018-06-05T09:01:26.409Z,23.2
2018-06-05T09:02:17.823Z,23.2
2018-06-05T09:03:07.959Z,23.2
2018-06-05T09:03:57.893Z,23.2
2018-06-05T09:04:46.971Z,23.2
2018-06-05T09:05:38.040Z,23.2
2018-06-05T09:06:27.589Z,23.2
2018-06-05T09:07:18.014Z,23.2
2018-06-05T09:08:07.529Z,23.2
2018-06-05T09:08:57.610Z,23.2
2018-06-05T09:09:48.073Z,23.2
2018-06-05T09:10:38.165Z,23.2
2018-06-05T09:11:28.037Z,23.2
2018-06-05T09:12:17.296Z,23.2
2018-06-05T09:13:08.313Z,23.2
2018-06-05T09:13:58.415Z,23.2
2018-06-05T09:14:48.755Z,23.2
2018-06-05T09:15:38.818Z,23.2
2018-06-05T09:16:28.049Z,23.2
2018-06-05T09:17:18.679Z,23.2
2018-06-05T09:18:07.688Z,23.2
2018-06-05T09:18:59.050Z,23.2
2018-06-05T09:19:48.650Z,23.2
2018-06-05T09:20:38.211Z,23.2
2018-06-05T09:21:28.721Z,23.2
2018-06-05T09:22:19.029Z,23.2
2018-06-05T09:23:09.162Z,23.2
2018-06-05T09:23:59.432Z,23.2
2018-06-05T09:24:49.508Z,23.2
2018-06-05T09:25:38.481Z,23.2
2018-06-05T09:26:29.684Z,23.2
2018-06-05T09:27:19.671Z,23.2
2018-06-05T09:28:09.276Z,23.2
2018-06-05T09:29:00.613Z,23.2
2018-06-05T09:29:49.562Z,23.2
2018-06-05T09:30:39.939Z,23.2
2018-06-05T09:31:28.703Z,23.2
2018-06-05T09:32:19.583Z,23.2
2018-06-05T09:33:10.149Z,23.2
2018-06-05T09:33:59.940Z,23.2
2018-06-05T09:34:50.241Z,23.2
2018-06-05T09:35:40.093Z,23.3
2018-06-05T09:36:30.431Z,23.2
2018-06-05T09:37:20.785Z,23.3
2018-06-05T09:38:09.995Z,23.3
2018-06-05T09:39:00.415Z,23.2
2018-06-05T09:39:50.729Z,23.2
2018-06-05T09:40:40.532Z,23.2
2018-06-05T09:41:30.016Z,23.3
2018-06-05T09:42:21.151Z,23.3
2018-06-05T09:43:10.209Z,23.2
2018-06-05T09:44:01.044Z,23.3
2018-06-05T09:44:51.121Z,23.2
2018-06-05T09:45:40.584Z,23.3
2018-06-05T09:46:30.937Z,23.3
2018-06-05T09:47:21.080Z,23.3
2018-06-05T09:48:11.573Z,23.3
2018-06-05T09:49:00.953Z,23.3
2018-06-05T09:49:51.848Z,23.3
2018-06-05T09:50:41.023Z,23.3
2018-06-05T09:51:31.088Z,23.3
2018-06-05T09:52:20.633Z,23.3
2018-06-05T09:53:11.792Z,23.3
2018-06-05T09:54:01.256Z,23.3
2018-06-05T09:54:51.313Z,23.3
2018-06-05T09:55:41.664Z,23.3
2018-06-05T09:56:31.228Z,23.3
2018-06-05T09:57:21.831Z,23.3
2018-06-05T09:58:12.460Z,23.3
2018-06-05T09:59:02.228Z,23.3
2018-06-05T09:59:52.035Z,23.3
2018-06-05T10:00:41.486Z,23.3
2018-06-05T10:01:31.555Z,23.3
2018-06-05T10:02:21.355Z,23.3
2018-06-05T10:03:12.299Z,23.3
2018-06-05T10:04:03.207Z,23.3
2018-06-05T10:04:52.995Z,23.3
2018-06-05T10:05:42.190Z,23.3
2018-06-05T10:06:33.042Z,23.3
2018-06-05T10:07:22.621Z,23.3
2018-06-05T10:08:13.159Z,23.3
2018-06-05T10:09:03.153Z,23.3
2018-06-05T10:09:53.094Z,23.3
2018-06-05T10:10:43.088Z,23.3
2018-06-05T10:11:33.444Z,23.3
2018-06-05T10:12:23.540Z,23.3
2018-06-05T10:13:12.739Z,23.3
2018-06-05T10:14:03.215Z,23.3
2018-06-05T10:14:52.867Z,23.3
2018-06-05T10:15:43.533Z,23.3
2018-06-05T10:16:33.050Z,23.3
2018-06-05T10:17:23.908Z,23.3
2018-06-05T10:18:13.718Z,23.3
2018-06-05T10:19:03.773Z,23.3
2018-06-05T10:19:53.322Z,23.3
2018-06-05T10:20:43.644Z,23.3
2018-06-05T10:21:33.659Z,23.3
2018-06-05T10:22:24.010Z,23.3
2018-06-05T10:23:14.107Z,23.3
2018-06-05T10:24:03.842Z,23.3
2018-06-05T10:24:54.181Z,23.3
2018-06-05T10:25:43.414Z,23.3
2018-06-05T10:26:34.328Z,23.3
2018-06-05T10:27:23.814Z,23.3
2018-06-05T10:28:14.473Z,23.3
2018-06-05T10:29:03.403Z,23.3
2018-06-05T10:29:54.308Z,23.3
2018-06-05T10:30:44.991Z,23.3
2018-06-05T10:31:34.457Z,23.3
2018-06-05T10:32:24.505Z,23.3
2018-06-05T10:33:14.853Z,23.3
2018-06-05T10:34:04.337Z,23.3
2018-06-05T10:34:55.075Z,23.3
2018-06-05T10:35:45.123Z,23.3
2018-06-05T10:36:35.149Z,23.3
2018-06-05T10:37:25.450Z,23.3
2018-06-05T10:38:15.479Z,23.3
2018-06-05T10:39:05.424Z,23.3
2018-06-05T10:39:55.711Z,23.3
2018-06-05T10:40:44.876Z,23.3
2018-06-05T10:41:34.947Z,23.3
2018-06-05T10:42:25.006Z,23.3
2018-06-05T10:43:15.060Z,23.3
2018-06-05T10:44:04.576Z,23.3
2018-06-05T10:44:55.454Z,23.3
2018-06-05T10:45:45.581Z,23.3
2018-06-05T10:46:35.058Z,23.3
2018-06-05T10:47:25.999Z,23.3
2018-06-05T10:48:16.047Z,23.3
2018-06-05T10:49:05.915Z,23.3
2018-06-05T10:49:56.169Z,23.3
2018-06-05T10:50:46.245Z,23.3
2018-06-05T10:51:36.043Z,23.3
2018-06-05T10:52:25.851Z,23.3
2018-06-05T10:53:16.205Z,23.3
2018-06-05T10:54:05.632Z,23.3
2018-06-05T10:54:56.558Z,23.3
2018-06-05T10:55:46.651Z,23.3
2018-06-05T10:56:36.701Z,23.3
2018-06-05T10:57:26.440Z,23.3
2018-06-05T10:58:17.079Z,23.3
2018-06-05T10:59:07.033Z,23.3
2018-06-05T10:59:56.956Z,23.3
2018-06-05T11:00:47.338Z,23.3
2018-06-05T11:01:37.475Z,23.3
2018-06-05T11:02:27.116Z,23.3
2018-06-05T11:03:17.241Z,23.3
2018-06-05T11:04:07.328Z,23.3
2018-06-05T11:04:56.768Z,23.3
2018-06-05T11:05:47.084Z,23.3
2018-06-05T11:06:37.189Z,23.3
2018-06-05T11:07:27.243Z,23.3
2018-06-05T11:08:17.662Z,23.3
2018-06-05T11:09:07.383Z,23.3